createdAt,value
2018-12-23T00:03:56.442Z,6.92
2018-12-23T00:08:57.274Z,6.76
2018-12-23T00:13:58.137Z,6.96
2018-12-23T00:18:58.936Z,6.94
2018-12-23T00:23:59.783Z,6.55
2018-12-23T00:29:00.643Z,6.46
2018-12-23T00:34:02.610Z,6.30
2018-12-23T00:39:04.813Z,6.35
2018-12-23T00:44:05.757Z,6.14
2018-12-23T00:49:06.584Z,6.21
2018-12-23T00:54:07.637Z,6.29
2018-12-23T00:59:15.635Z,6.33
2018-12-23T01:04:17.172Z,6.47
2018-12-23T01:09:21.463Z,6.29
2018-12-23T01:14:23.644Z,6.38
2018-12-23T01:19:24.714Z,6.46
2018-12-23T01:24:31.451Z,6.46
2018-12-23T01:29:32.365Z,6.38
2018-12-23T01:34:37.164Z,6.29
2018-12-23T01:39:37.535Z,6.17
2018-12-23T01:44:39.029Z,6.12
2018-12-23T01:49:40.182Z,6.23
2018-12-23T01:54:41.006Z,6.39
2018-12-23T01:59:43.255Z,6.39
2018-12-23T02:04:44.467Z,6.41
2018-12-23T02:09:45.835Z,6.40
2018-12-23T02:14:46.781Z,6.66
2018-12-23T02:19:47.862Z,6.71
2018-12-23T02:24:48.907Z,6.76
2018-12-23T02:29:50.756Z,6.60
2018-12-23T02:34:51.780Z,6.39
2018-12-23T02:39:53.318Z,6.33
2018-12-23T02:44:54.382Z,6.48
2018-12-23T02:49:55.163Z,6.37
2018-12-23T02:54:55.971Z,6.65
2018-12-23T02:59:56.732Z,6.74
2018-12-23T03:04:57.643Z,6.68
2018-12-23T03:09:58.407Z,6.63
2018-12-23T03:14:59.089Z,6.73
2018-12-23T03:19:59.860Z,6.89
2018-12-23T03:25:01.736Z,6.83
2018-12-23T03:30:03.827Z,6.79
2018-12-23T03:35:04.999Z,6.67
2018-12-23T03:40:05.803Z,6.62
2018-12-23T03:45:06.718Z,6.72
2018-12-23T03:50:07.766Z,6.69
2018-12-23T03:55:08.562Z,6.59
2018-12-23T04:00:09.876Z,6.73
2018-12-23T04:05:11.478Z,6.66
2018-12-23T04:10:12.347Z,6.71
2018-12-23T04:15:13.113Z,6.82
2018-12-23T04:20:13.915Z,6.85
2018-12-23T04:25:15.064Z,6.85
2018-12-23T04:30:15.954Z,6.73
2018-12-23T04:35:16.725Z,6.71
2018-12-23T04:40:17.481Z,6.77
2018-12-23T04:45:18.308Z,6.79
2018-12-23T04:50:19.141Z,6.78
2018-12-23T04:55:20.070Z,6.78
2018-12-23T05:00:20.901Z,6.87
2018-12-23T05:05:21.757Z,6.86
2018-12-23T05:10:22.596Z,6.70
2018-12-23T05:15:24.283Z,6.65
2018-12-23T05:20:25.145Z,6.66
2018-12-23T05:31:17.467Z,6.79
2018-12-23T05:36:18.639Z,6.75
2018-12-23T05:41:21.630Z,6.63
2018-12-23T05:46:22.686Z,6.61
2018-12-23T05:51:23.861Z,6.58
2018-12-23T05:56:24.931Z,6.67
2018-12-23T06:01:26.311Z,6.71
2018-12-23T06:06:27.466Z,6.64
2018-12-23T06:11:28.308Z,6.78
2018-12-23T06:16:29.444Z,6.71
2018-12-23T06:21:30.495Z,6.77
2018-12-23T06:26:31.745Z,6.86
2018-12-23T06:31:32.826Z,6.91
2018-12-23T06:36:33.824Z,6.98
2018-12-23T06:41:35.066Z,6.84
2018-12-23T06:46:36.243Z,6.91
2018-12-23T06:51:38.970Z,7.05
2018-12-23T06:56:40.335Z,7.15
2018-12-23T07:01:41.187Z,7.11
2018-12-23T07:06:42.350Z,7.13
2018-12-23T07:11:43.544Z,7.08
2018-12-23T07:16:44.924Z,7.11
2018-12-23T07:21:46.213Z,7.11
2018-12-23T07:26:47.488Z,7.08
2018-12-23T07:31:48.806Z,7.04
2018-12-23T07:36:52.657Z,7.14
2018-12-23T07:41:53.809Z,7.16
2018-12-23T07:46:59.496Z,7.25
2018-12-23T07:52:02.243Z,7.30
2018-12-23T07:57:03.439Z,7.26
2018-12-23T08:02:05.960Z,7.24
2018-12-23T08:07:08.326Z,7.35
2018-12-23T08:12:11.597Z,7.43
2018-12-23T08:17:12.349Z,7.52
2018-12-23T08:22:13.536Z,7.60
2018-12-23T08:27:16.340Z,7.70
2018-12-23T08:32:17.591Z,7.82
2018-12-23T08:37:18.788Z,7.88
2018-12-23T08:42:20.189Z,7.86
2018-12-23T08:47:21.486Z,7.85
2018-12-23T08:52:22.580Z,7.97
2018-12-23T08:57:23.566Z,8.11
2018-12-23T09:02:24.851Z,8.14
2018-12-23T09:07:26.207Z,8.12
2018-12-23T09:12:27.420Z,8.20
2018-12-23T09:17:28.382Z,8.20
2018-12-23T09:22:31.586Z,8.17
2018-12-23T09:27:32.613Z,8.33
2018-12-23T09:32:33.921Z,8.30
2018-12-23T09:37:34.811Z,8.44
2018-12-23T09:42:36.021Z,8.51
2018-12-23T09:47:37.015Z,8.56
2018-12-23T09:52:38.422Z,8.52
2018-12-23T09:57:40.044Z,8.54
2018-12-23T10:02:42.309Z,8.58
2018-12-23T10:07:43.219Z,8.57
2018-12-23T10:12:44.352Z,8.51
2018-12-23T10:17:45.655Z,8.60
2018-12-23T10:22:48.655Z,8.52
2018-12-23T10:28:07.850Z,8.64
2018-12-23T10:33:08.777Z,8.64
2018-12-23T10:38:09.714Z,8.64
2018-12-23T10:43:12.212Z,8.62
2018-12-23T10:48:13.889Z,8.69
2018-12-23T10:53:16.501Z,8.76
2018-12-23T10:58:17.555Z,8.82
2018-12-23T11:03:18.910Z,8.89
2018-12-23T11:08:26.864Z,8.94
2018-12-23T11:13:35.324Z,8.94
2018-12-23T11:18:36.251Z,8.93
2018-12-23T11:23:53.113Z,8.95
2018-12-23T11:28:51.663Z,8.97
2018-12-23T11:33:52.760Z,8.94
2018-12-23T11:38:54.127Z,8.98
2018-12-23T11:43:55.349Z,9.02
2018-12-23T11:48:56.780Z,9.08
2018-12-23T11:53:57.878Z,9.14
2018-12-23T11:58:59.376Z,9.16
2018-12-23T12:04:00.577Z,9.12
2018-12-23T12:09:06.961Z,9.05
2018-12-23T12:14:04.569Z,8.96
2018-12-23T12:19:05.700Z,8.87
2018-12-23T12:24:06.778Z,8.80
2018-12-23T12:29:07.874Z,8.65
2018-12-23T12:34:09.001Z,8.48
2018-12-23T12:39:10.083Z,8.26
2018-12-23T12:44:11.087Z,8.10
2018-12-23T12:49:13.310Z,7.95
2018-12-23T12:54:14.548Z,7.99
2018-12-23T12:59:15.456Z,7.94
2018-12-23T13:04:16.672Z,7.98
2018-12-23T13:09:17.487Z,7.99
2018-12-23T13:14:18.819Z,8.06
2018-12-23T13:19:20.250Z,8.10
2018-12-23T13:24:21.131Z,8.11
2018-12-23T13:29:22.114Z,8.28
2018-12-23T13:34:23.729Z,8.42
2018-12-23T13:39:25.117Z,8.47
2018-12-23T13:44:41.585Z,8.38
2018-12-23T13:50:09.057Z,8.50
2018-12-23T13:55:35.298Z,8.37
2018-12-23T14:01:06.014Z,8.18
2018-12-23T14:06:08.462Z,8.12
2018-12-23T14:16:50.978Z,8.03
2018-12-23T14:21:52.259Z,8.02
2018-12-23T14:26:53.284Z,8.09
2018-12-23T14:31:54.377Z,8.19
2018-12-23T14:36:55.208Z,8.00
2018-12-23T14:41:56.275Z,7.87
2018-12-23T14:47:11.198Z,7.88
2018-12-23T14:52:13.339Z,7.93
2018-12-23T14:57:14.337Z,7.95
2018-12-23T15:02:15.588Z,7.92
2018-12-23T15:07:17.160Z,7.91
2018-12-23T15:12:18.140Z,7.97
2018-12-23T15:17:24.351Z,7.85
2018-12-23T15:22:26.437Z,7.74
2018-12-23T15:27:27.518Z,7.77
2018-12-23T15:32:28.664Z,7.74
2018-12-23T15:46:23.336Z,7.74
2018-12-23T15:48:17.725Z,7.88
2018-12-23T15:53:18.761Z,8.02
2018-12-23T15:58:19.600Z,7.98
2018-12-23T16:03:20.440Z,8.08
2018-12-23T16:13:50.506Z,8.04
2018-12-23T16:18:51.632Z,8.08
2018-12-23T16:23:52.597Z,7.98
2018-12-23T16:29:00.467Z,8.08
2018-12-23T16:34:01.618Z,7.93
2018-12-23T16:39:05.481Z,8.03
2018-12-23T16:44:07.035Z,8.15
2018-12-23T16:49:08.103Z,8.47
2018-12-23T16:54:09.337Z,8.45
2018-12-23T16:59:10.527Z,8.13
2018-12-23T17:04:45.091Z,7.93
2018-12-23T17:09:46.259Z,7.75
2018-12-23T17:14:47.527Z,7.70
2018-12-23T17:19:48.615Z,7.72
2018-12-23T17:24:50.332Z,7.84
2018-12-23T17:29:56.291Z,7.58
2018-12-23T17:34:57.377Z,7.99
2018-12-23T17:39:58.438Z,8.29
2018-12-23T17:44:59.237Z,8.36
2018-12-23T17:50:04.303Z,8.36
2018-12-23T17:55:21.654Z,8.73
2018-12-23T18:00:22.737Z,8.52
2018-12-23T18:05:30.198Z,8.31
2018-12-23T18:10:39.208Z,7.99
2018-12-23T18:15:48.877Z,7.99
2018-12-23T18:20:54.117Z,8.12
2018-12-23T18:25:55.758Z,8.38
2018-12-23T18:30:59.792Z,8.72
2018-12-23T18:36:00.998Z,9.21
2018-12-23T18:41:13.683Z,9.32
2018-12-23T18:46:32.792Z,9.62
2018-12-23T18:56:57.503Z,9.76
2018-12-23T19:01:59.041Z,9.87
2018-12-23T19:07:15.555Z,9.90
2018-12-23T19:12:53.705Z,9.99
2018-12-23T19:18:03.704Z,10.22
2018-12-23T19:23:29.679Z,10.40
2018-12-23T19:28:42.574Z,10.49
2018-12-23T19:33:56.747Z,10.56
2018-12-23T19:39:18.981Z,10.70
2018-12-23T19:44:27.140Z,10.88
2018-12-23T19:49:51.674Z,10.90
2018-12-23T19:55:03.751Z,10.83
2018-12-23T20:00:40.768Z,10.89
2018-12-23T20:06:02.323Z,10.99
2018-12-23T20:11:22.331Z,10.96
2018-12-23T20:16:33.916Z,10.96
2018-12-23T20:22:02.127Z,10.92
2018-12-23T20:27:29.708Z,10.86
2018-12-23T20:32:34.552Z,10.82
2018-12-23T20:37:40.537Z,10.84
2018-12-23T20:43:08.592Z,10.74
2018-12-23T20:48:36.846Z,10.68
2018-12-23T20:53:48.566Z,10.95
2018-12-23T20:59:03.854Z,10.89
2018-12-23T21:04:23.157Z,11.06
2018-12-23T21:09:49.270Z,11.03
2018-12-23T21:15:18.032Z,11.12
2018-12-23T21:26:23.327Z,10.90
2018-12-23T21:31:49.646Z,10.86
2018-12-23T21:37:01.189Z,10.98
2018-12-23T21:42:12.347Z,10.99
2018-12-23T21:47:36.813Z,10.22
2018-12-23T21:52:50.883Z,10.26
2018-12-23T21:58:02.394Z,10.20
2018-12-23T22:03:29.941Z,10.77
2018-12-23T22:08:46.645Z,11.16
2018-12-23T22:13:47.916Z,11.18
2018-12-23T22:20:12.439Z,11.08
2018-12-23T22:24:54.216Z,10.92
2018-12-23T22:29:55.335Z,10.88
2018-12-23T22:34:56.355Z,10.96
2018-12-23T22:39:57.279Z,10.35
2018-12-23T22:44:58.390Z,10.52
2018-12-23T22:49:59.591Z,10.38
2018-12-23T22:55:00.477Z,10.55
2018-12-23T23:00:01.656Z,10.50
2018-12-23T23:05:52.309Z,10.56
2018-12-23T23:10:49.497Z,10.43
2018-12-23T23:15:50.579Z,10.32
2018-12-23T23:20:51.618Z,10.17
2018-12-23T23:25:52.413Z,10.05
2018-12-23T23:30:53.484Z,9.65
2018-12-23T23:35:54.573Z,9.39
2018-12-23T23:40:55.441Z,9.28
2018-12-23T23:45:56.289Z,9.28
2018-12-23T23:50:57.167Z,9.03
2018-12-23T23:55:59.130Z,8.85
